Date,TemperatureHighF,TemperatureAvgF,TemperatureLowF,DewpointHighF,DewpointAvgF,DewpointLowF,HumidityHigh,HumidityAvg,HumidityLow,PressureMaxIn,PressureMinIn,WindSpeedMaxMPH,WindSpeedAvgMPH,GustSpeedMaxMPH,PrecipitationSumIn
2013-1-1,40,36,27,32,25,14,73,63,54,29.87,29.71,16,7,27,0.00
2013-1-2,31,27,22,19,14,9,67,60,53,30.03,29.86,17,8,21,0.00
2013-1-3,29,21,14,18,9,4,70,60,49,30.09,29.98,14,4,23,0.00
2013-1-4,40,34,25,31,26,17,82,72,56,29.97,29.82,12,3,23,0.00
2013-1-5,43,37,31,28,26,23,78,64,50,30.22,29.85,15,4,25,0.00
2013-1-6,44,36,30,38,33,24,95,86,72,30.18,29.91,16,1,16,0.05
2013-1-7,40,36,31,34,32,29,95,83,71,30.37,29.93,17,6,20,0.05
2013-1-8,48,43,37,39,37,33,91,80,68,30.37,30.28,11,3,20,0.00
2013-1-9,49,43,32,46,40,31,98,90,75,30.36,30.00,15,3,26,0.00
2013-1-10,47,43,38,39,29,25,74,58,46,30.46,30.06,22,7,28,0.00
2013-1-11,42,39,35,40,34,28,95,83,68,30.46,30.18,11,4,14,0.15
2013-1-12,44,42,40,43,41,39,98,96,95,30.17,30.07,11,4,15,0.04
2013-1-13,50,47,42,50,46,42,99,98,97,30.13,30.00,10,2,13,0.03
2013-1-14,54,50,46,54,48,37,99,92,63,30.19,29.91,13,4,19,0.03
2013-1-15,45,41,39,38,37,35,93,86,72,30.24,30.16,14,6,20,0.16
2013-1-16,42,40,38,41,39,36,98,95,85,30.18,29.67,14,5,21,0.43
2013-1-17,42,40,36,39,34,29,96,80,65,30.03,29.82,16,4,21,0.43
2013-1-18,36,26,19,30,12,2,96,59,37,30.45,29.95,25,11,32,0.00
2013-1-19,48,42,24,45,36,16,91,78,68,30.40,29.93,16,6,27,0.00
2013-1-20,51,46,33,46,38,17,94,74,46,29.93,29.59,16,6,23,0.00
2013-1-21,33,30,27,32,19,12,96,67,46,30.07,29.72,14,4,19,0.00
2013-1-22,30,24,17,29,12,-1,96,64,38,30.03,29.68,18,6,31,0.00
2013-1-23,18,15,11,4,-2,-100,63,49,45,30.12,30.02,21,-2,32,0.00
2013-1-24,20,15,10,2,-2,-5,61,49,36,30.18,30.01,19,10,32,0.00
2013-1-25,25,20,13,20,6,-4,91,55,44,30.27,29.99,17,5,22,0.00
2013-1-26,26,22,19,21,12,1,92,69,41,30.18,29.93,20,10,30,0.00
2013-1-27,31,23,18,10,7,5,64,52,39,30.42,30.17,27,9,29,0.00
2013-1-28,36,29,22,35,19,7,96,68,42,30.41,29.94,9,2,12,0.10
2013-1-29,39,36,34,38,35,33,97,96,95,30.16,29.94,7,3,9,0.01
2013-1-30,55,48,38,53,47,37,98,96,93,30.12,29.53,19,6,25,0.06
2013-1-31,56,47,35,55,40,16,98,78,46,29.60,29.07,21,8,31,0.40
2013-2-1,35,31,25,23,15,8,74,52,42,30.06,29.60,21,8,26,0.40
2013-2-2,34,28,22,29,16,8,92,60,48,30.23,30.01,14,6,21,0.00
2013-2-3,33,28,25,29,23,-100,94,83,77,30.00,29.64,17,-4,23,0.00
2013-2-4,31,28,25,25,16,11,91,61,46,29.91,29.67,17,6,27,0.00
2013-2-5,32,28,26,31,21,9,95,76,47,29.98,29.86,13,7,17,0.00
2013-2-6,40,34,31,33,27,13,96,77,45,30.23,29.85,15,5,22,0.00
2013-2-7,31,28,26,26,15,9,84,60,45,30.48,30.23,15,8,22,0.00
2013-2-8,35,33,31,34,27,-100,98,88,80,30.41,29.20,41,-10,54,0.00
2013-2-9,32,22,18,32,14,-100,98,87,81,30.10,29.18,48,-9,58,0.00
2013-2-10,34,24,18,24,15,-100,90,72,52,30.35,30.11,19,6,26,0.00
2013-2-11,46,39,26,45,37,23,98,93,85,30.33,29.57,14,4,23,0.51
2013-2-12,45,40,32,45,34,27,98,80,60,29.85,29.57,14,4,23,0.51
2013-2-13,40,35,31,32,28,25,91,75,60,29.85,29.62,10,3,14,0.00
2013-2-14,41,35,32,33,31,28,96,87,63,29.99,29.62,13,5,16,0.01
2013-2-15,46,40,34,41,37,32,95,90,80,30.02,29.90,9,3,14,0.01
2013-2-16,39,36,34,37,34,33,97,94,87,29.91,29.56,19,9,24,0.01
2013-2-17,36,26,20,33,19,6,94,77,47,29.63,29.27,34,19,43,0.01
2013-2-18,31,25,18,13,8,6,60,49,35,30.14,29.64,28,10,35,0.00
2013-2-19,49,39,29,48,33,14,97,79,50,30.14,29.56,13,4,24,0.88
2013-2-20,44,35,28,43,24,12,97,67,46,29.77,29.53,21,8,26,0.88
2013-2-21,34,30,27,21,18,16,69,60,50,30.06,29.74,25,10,30,0.00
2013-2-22,36,34,30,30,27,21,81,77,68,30.32,30.08,20,9,29,0.00
2013-2-23,39,37,34,38,33,30,96,87,76,30.29,29.77,17,8,21,0.36
2013-2-24,42,39,33,42,38,32,98,97,95,29.80,29.51,23,14,27,0.13
2013-2-25,39,34,30,33,31,28,98,88,72,30.20,29.80,15,7,21,0.01
2013-2-26,40,36,28,37,31,26,96,84,66,30.29,30.08,15,5,17,0.01
2013-2-27,45,42,40,44,42,37,98,96,88,30.07,29.52,29,14,38,0.07
2013-2-28,44,40,38,41,39,37,98,96,86,29.60,29.46,7,2,10,0.06
2013-3-1,42,39,36,38,35,33,97,88,74,29.63,29.45,15,6,20,0.06
2013-3-2,42,38,36,33,31,29,90,76,64,29.64,29.58,13,4,18,0.00
2013-3-3,40,37,34,32,30,29,89,78,66,29.59,29.53,9,4,13,0.00
2013-3-4,41,36,32,31,27,25,90,70,57,29.66,29.53,21,8,26,0.00
2013-3-5,42,38,34,36,32,26,93,80,70,30.00,29.66,18,10,23,0.00
2013-3-6,40,39,36,37,36,35,95,89,83,29.98,29.80,40,19,43,0.01
2013-3-7,38,37,35,37,36,34,97,95,92,29.82,29.75,36,28,43,0.00
2013-3-8,41,37,34,37,35,34,98,93,77,29.98,29.75,33,26,41,0.00
2013-3-9,41,38,37,35,34,33,89,85,77,30.26,29.98,31,20,36,0.00
2013-3-10,40,38,35,35,34,32,90,84,80,30.35,30.25,17,8,20,0.00
2013-3-11,46,41,36,41,38,34,95,89,82,30.30,30.14,11,4,15,0.00
2013-3-12,50,47,42,49,46,41,97,95,92,30.15,29.71,14,7,26,0.27
2013-3-13,52,45,36,51,38,28,98,79,60,29.75,29.66,14,5,20,0.89
2013-3-14,38,34,27,31,22,10,86,64,47,29.79,29.67,21,6,32,0.00
2013-3-15,39,32,25,32,20,11,77,61,38,29.83,29.65,20,8,32,0.00
2013-3-16,39,36,33,30,23,13,83,61,39,29.83,29.66,12,4,24,0.00
2013-3-17,39,34,29,29,22,13,87,62,39,30.24,29.83,15,6,18,0.00
2013-3-18,35,32,27,28,21,15,76,65,50,30.39,30.17,16,10,21,0.00
2013-3-19,46,39,34,45,37,29,98,93,75,30.18,29.44,30,14,33,0.08
2013-3-20,41,36,32,32,27,22,93,70,49,29.80,29.62,21,6,27,0.08
2013-3-21,38,35,30,33,30,27,97,84,68,29.79,29.53,19,8,22,0.00
2013-3-22,40,34,27,31,27,23,97,78,58,29.71,29.54,13,4,22,0.01
2013-3-23,44,38,32,28,24,20,78,59,40,29.75,29.61,21,8,33,0.01
2013-3-24,44,38,33,32,27,23,85,66,49,29.80,29.70,13,6,19,0.00
2013-3-25,42,39,34,38,34,30,92,83,72,29.71,29.37,30,13,33,0.01
2013-3-26,47,40,36,35,32,26,90,76,53,29.74,29.38,24,8,28,0.02
2013-3-27,50,42,34,38,31,25,83,65,42,29.80,29.71,12,4,16,0.00
2013-3-28,44,41,39,38,36,33,92,81,68,29.98,29.79,15,7,22,0.00
2013-3-29,54,46,40,39,36,34,85,72,51,30.00,29.95,11,4,16,0.00
2013-3-30,51,45,38,37,35,33,87,70,50,30.06,29.98,13,4,15,0.00
2013-3-31,52,45,34,44,39,32,94,81,67,30.09,29.70,21,5,28,0.03
2013-4-1,51,46,38,47,43,19,97,88,44,29.75,29.55,21,7,31,0.07
2013-4-2,42,37,31,23,19,14,61,48,37,29.95,29.75,18,6,26,0.07
2013-4-3,45,38,31,26,18,15,56,45,35,30.13,29.93,26,8,27,0.00
2013-4-4,44,39,32,36,26,18,84,60,42,30.28,30.08,16,5,22,0.00
2013-4-5,49,42,40,45,39,32,95,87,56,30.08,29.61,10,3,17,0.08
2013-4-6,46,40,36,35,24,11,74,55,28,30.31,29.80,18,7,25,0.08
2013-4-7,48,43,33,44,37,28,92,77,61,30.30,30.04,15,5,22,0.00
2013-4-8,61,51,46,48,44,41,94,79,58,30.09,29.96,10,4,18,0.00
2013-4-9,68,52,46,52,48,43,97,85,57,30.07,29.83,11,5,21,0.00
2013-4-10,50,47,44,46,44,42,97,91,86,30.00,29.81,28,7,28,0.03
2013-4-11,48,46,44,46,43,39,98,90,74,30.08,29.75,15,8,17,0.07
2013-4-12,45,43,39,44,39,33,98,86,66,30.10,29.63,27,13,35,0.84
2013-4-13,48,43,40,43,40,38,98,90,77,29.91,29.62,25,10,32,0.86
2013-4-14,54,48,40,45,38,31,92,72,44,30.17,29.91,11,4,21,0.00
2013-4-15,51,45,42,42,39,31,90,78,65,30.39,30.16,13,5,15,0.00
2013-4-16,54,49,42,48,45,40,96,86,75,30.39,30.12,18,6,21,0.00
2013-4-17,57,51,43,52,46,39,97,84,59,30.29,30.07,14,4,16,0.08
2013-4-18,53,48,40,48,41,-100,96,81,60,30.38,30.14,14,-5,19,0.00
2013-4-19,62,56,50,58,54,48,98,94,87,30.13,29.74,18,7,24,0.00
2013-4-20,58,52,46,57,48,38,98,88,65,30.14,29.67,16,4,28,0.03
2013-4-21,50,44,40,41,30,25,72,61,53,30.62,30.15,20,10,23,0.03
2013-4-22,46,45,43,41,36,32,82,72,59,30.66,30.49,25,15,26,0.00
2013-4-23,47,45,43,46,44,38,97,94,82,30.49,29.93,26,18,33,0.58
2013-4-24,54,47,44,49,43,-100,97,89,79,29.94,29.78,31,-10,37,0.64
2013-4-25,57,51,44,52,46,41,97,85,62,30.21,29.88,15,4,23,0.06
2013-4-26,54,48,42,45,43,37,96,82,69,30.38,30.20,11,4,14,0.00
2013-4-27,56,49,41,46,40,33,97,74,45,30.38,30.29,10,2,11,0.01
2013-4-28,59,51,40,49,45,39,95,82,65,30.32,30.24,9,2,12,0.00
2013-4-29,57,51,44,49,44,39,97,79,53,30.26,30.21,10,3,12,0.00
2013-4-30,58,51,41,48,38,30,95,66,36,30.32,30.21,10,3,11,0.00
2013-5-1,54,49,44,49,45,-100,97,88,79,30.43,30.32,11,-6,13,0.00
2013-5-2,65,53,44,52,47,43,97,81,50,30.42,30.34,18,5,20,0.00
2013-5-3,50,49,47,46,44,42,92,85,79,30.42,30.31,21,12,24,0.00
2013-5-4,50,48,47,46,43,40,93,83,68,30.31,30.25,24,14,27,0.00
2013-5-5,51,48,45,46,44,41,94,86,69,30.26,30.22,18,10,20,0.00
2013-5-6,57,48,44,51,46,43,97,93,82,30.25,30.15,9,4,11,0.00
2013-5-7,64,56,47,60,54,46,98,94,83,30.16,30.11,8,4,12,0.00
2013-5-8,69,61,55,64,59,54,98,93,84,30.16,30.01,18,8,22,0.04
2013-5-9,65,57,52,63,56,52,98,95,89,30.00,29.85,8,3,15,0.06
2013-5-10,71,60,53,60,56,52,98,87,65,29.95,29.86,12,3,14,0.00
2013-5-11,64,58,55,60,57,54,98,95,84,29.93,29.70,12,5,21,0.83
2013-5-12,61,57,52,60,54,43,99,91,65,29.78,29.59,10,4,19,1.18
2013-5-13,56,52,44,44,39,33,78,62,49,29.96,29.79,17,4,25,0.00
2013-5-14,55,50,45,44,40,33,86,67,50,30.02,29.94,17,7,23,0.00
2013-5-15,59,53,46,55,49,44,95,84,62,30.04,29.67,20,5,24,0.00
2013-5-16,71,60,53,56,53,47,97,79,43,29.75,29.63,18,4,20,0.00
2013-5-17,61,57,49,52,48,43,91,72,53,30.18,29.75,13,6,18,0.00
2013-5-18,64,56,46,55,51,44,94,83,66,30.28,30.18,11,3,14,0.00
2013-5-19,67,58,51,55,52,50,97,82,59,30.33,30.21,11,3,14,0.08
2013-5-20,69,60,56,65,59,55,98,95,82,30.20,29.92,17,4,21,0.20
2013-5-21,66,61,57,62,59,56,98,94,87,29.95,29.84,10,3,16,0.00
2013-5-22,66,59,54,63,58,53,98,95,87,29.92,29.88,15,4,19,0.00
2013-5-23,68,63,59,64,61,58,99,95,87,29.94,29.85,17,5,24,0.30
2013-5-24,64,61,56,64,61,55,99,98,96,29.84,29.65,20,5,32,0.13
2013-5-25,56,51,44,55,49,-100,97,94,90,29.72,29.63,22,-2,25,0.21
2013-5-26,60,51,43,46,43,40,97,75,55,30.07,29.70,14,6,24,0.22
2013-5-27,65,57,48,52,47,42,88,69,52,30.14,30.07,9,4,24,0.00
2013-5-28,66,58,49,57,53,46,96,84,64,30.21,30.14,9,2,12,0.00
2013-5-29,63,59,56,61,57,56,97,95,90,30.19,30.00,14,5,22,0.09
2013-5-30,73,64,58,66,61,58,97,89,77,30.07,30.00,9,3,15,0.24
2013-5-31,80,69,59,69,63,58,95,83,67,30.06,29.96,10,3,13,0.00
2013-6-1,70,65,61,65,62,59,96,89,80,29.98,29.92,13,4,19,0.00
2013-6-2,69,65,61,65,63,60,96,92,84,29.93,29.82,16,5,25,0.00
2013-6-3,64,63,61,64,62,61,99,98,95,29.84,29.76,10,4,20,0.11
2013-6-4,70,62,56,62,52,46,99,71,46,30.03,29.75,15,5,19,0.11
2013-6-5,67,62,56,55,52,49,93,70,54,30.16,30.03,10,4,15,0.00
2013-6-6,66,61,54,59,55,52,96,83,69,30.17,30.04,13,5,17,0.00
2013-6-7,64,60,58,64,58,54,98,95,82,30.05,29.72,20,10,22,1.37
2013-6-8,67,64,60,65,62,59,99,94,83,29.96,29.51,16,6,24,1.59
2013-6-9,74,67,61,63,61,56,98,80,53,30.13,29.97,11,3,16,0.00
2013-6-10,68,63,60,62,60,58,97,88,78,30.15,29.95,15,4,19,0.80
2013-6-11,66,64,60,65,63,59,98,97,95,29.93,29.52,16,5,25,0.06
2013-6-12,71,65,61,62,58,55,97,79,61,29.76,29.54,18,7,24,0.06
2013-6-13,66,61,55,59,56,54,94,84,74,29.78,29.52,21,7,27,0.25
2013-6-14,65,57,55,57,51,-100,97,85,71,29.71,29.46,31,-7,38,0.48
2013-6-15,72,66,60,61,56,49,91,72,48,29.93,29.70,14,5,16,0.00
2013-6-16,73,65,60,63,61,57,96,85,62,29.93,29.75,15,3,17,0.00
2013-6-17,76,68,63,68,64,61,94,88,75,29.89,29.76,14,2,19,0.00
2013-6-18,69,64,60,67,63,59,97,93,85,29.89,29.82,15,4,20,0.01
2013-6-19,67,64,58,62,57,53,95,80,62,30.12,29.78,21,10,24,0.04
2013-6-20,71,64,55,62,58,54,96,81,59,30.25,30.12,11,3,15,0.00
2013-6-21,71,65,60,62,58,54,93,78,62,30.27,30.20,9,3,20,0.00
2013-6-22,74,67,62,64,62,58,95,84,63,30.23,30.14,10,3,14,0.00
2013-6-23,74,69,64,67,66,63,97,89,79,30.16,30.05,11,4,18,0.00
2013-6-24,80,72,66,73,69,66,98,90,78,30.04,29.87,10,4,18,0.00
2013-6-25,83,72,67,72,66,-100,95,84,69,29.89,29.75,12,-8,14,0.00
2013-6-26,83,74,68,75,70,67,97,87,73,29.80,29.70,9,2,13,0.28
2013-6-27,71,68,66,69,67,65,98,97,92,29.80,29.72,9,3,12,0.00
2013-6-28,70,67,67,70,66,-100,99,97,96,29.72,29.54,14,-5,21,0.24
2013-6-29,70,68,67,70,67,66,99,98,97,29.73,29.52,13,4,16,0.15
2013-6-30,72,68,66,70,68,66,99,97,90,29.95,29.73,8,3,13,0.01
2013-7-1,75,70,67,72,69,67,98,96,90,30.10,29.94,11,4,19,0.08
2013-7-2,76,71,68,73,70,67,99,95,88,30.19,30.09,10,4,17,0.39
2013-7-3,75,72,69,73,71,69,99,96,92,30.21,30.16,12,4,18,0.00
2013-7-4,78,73,70,75,72,70,99,95,86,30.21,30.11,10,3,15,0.00
2013-7-5,80,75,70,75,72,69,98,91,82,30.15,30.05,11,3,16,0.00
2013-7-6,84,77,71,77,73,70,97,88,78,30.07,29.95,9,3,13,0.00
2013-7-7,86,78,71,77,74,70,97,88,71,29.99,29.89,7,2,13,0.00
2013-7-8,80,75,71,74,72,70,98,90,80,30.01,29.90,11,3,17,0.00
2013-7-9,75,73,70,72,71,69,98,95,90,30.05,29.98,9,2,9,0.00
2013-7-10,80,75,72,76,74,71,99,94,85,30.03,29.80,16,3,16,0.00
2013-7-11,75,73,71,74,72,70,99,97,92,29.86,29.79,8,2,16,0.33
2013-7-12,73,71,68,72,70,67,99,97,93,30.12,29.86,15,8,18,0.05
2013-7-13,77,70,67,75,70,67,99,98,91,30.27,30.12,13,4,13,0.01
2013-7-14,81,76,70,76,74,69,99,93,84,30.27,30.16,9,2,14,0.08
2013-7-15,85,79,73,78,75,72,98,87,73,30.16,30.07,8,2,11,0.08
2013-7-16,83,78,72,74,72,68,97,81,69,30.12,30.04,9,3,13,0.00
2013-7-17,82,76,71,75,71,66,93,84,69,30.15,30.02,8,3,11,0.00
2013-7-18,86,79,73,77,74,72,97,86,70,30.02,29.94,8,3,17,0.00
2013-7-19,84,77,74,79,72,-100,98,90,84,29.93,29.76,13,-18,21,0.00
2013-7-20,81,78,75,77,75,73,97,92,85,29.77,29.67,14,3,18,0.00
2013-7-21,80,74,68,74,70,67,96,89,71,29.95,29.76,14,2,21,0.19
2013-7-22,75,72,69,72,70,68,99,94,90,29.96,29.84,9,4,10,0.00
2013-7-23,81,76,70,78,74,70,99,95,89,29.84,29.54,12,4,17,0.00
2013-7-24,85,76,72,76,68,-100,100,83,66,29.83,29.54,14,-29,14,0.00
2013-7-25,76,36,66,69,-15,-100,93,45,75,29.98,29.85,19,-476,23,0.00
2013-7-26,69,32,67,69,-23,-100,97,44,91,29.99,29.81,25,-532,29,0.02
2013-7-27,77,53,70,72,22,-100,96,64,83,30.05,29.97,8,-280,15,0.02
2013-7-28,80,58,70,76,35,-100,98,73,79,30.00,29.89,7,-212,12,0.01
2013-7-29,80,61,69,76,42,-100,98,76,86,30.01,29.95,9,-174,13,0.01
2013-7-30,80,59,66,70,31,-100,98,62,59,30.06,29.98,11,-193,15,0.00
2013-7-31,78,58,65,67,33,-100,95,63,58,30.09,30.03,10,-188,12,0.00
2013-8-1,76,58,66,70,37,-100,96,73,74,30.03,29.86,9,-181,14,0.07
2013-8-2,79,57,67,73,34,-100,97,70,73,29.87,29.76,12,-206,14,0.26
2013-8-3,73,50,68,70,19,-100,95,63,81,29.87,29.78,6,-290,12,0.06
2013-8-4,77,52,64,67,18,-100,90,53,62,29.83,29.74,11,-274,15,0.00
2013-8-5,74,56,61,62,29,-100,91,56,44,29.99,29.83,14,-171,21,0.00
2013-8-6,74,57,61,62,31,-100,89,57,52,30.13,29.99,10,-167,12,0.00
2013-8-7,74,57,62,68,32,-100,92,62,62,30.16,30.11,8,-174,12,0.00
2013-8-8,77,52,66,72,22,-100,96,64,78,30.11,30.03,10,-273,17,0.05
2013-8-9,73,41,70,72,-2,-100,100,55,94,30.05,29.78,14,-423,25,0.09
2013-8-10,81,53,69,69,18,-100,91,52,53,29.96,29.77,16,-287,19,0.00
2013-8-11,75,58,66,62,31,-100,86,55,52,30.04,29.96,7,-173,16,0.00
2013-8-12,73,52,64,71,24,-100,98,68,81,30.01,29.90,5,-262,10,0.08
2013-8-13,70,21,68,69,-49,-100,99,30,98,29.89,29.64,5,-694,8,0.12
2013-8-14,73,46,62,62,8,-100,92,48,55,29.91,29.64,11,-316,22,0.00
2013-8-15,74,55,61,60,28,-100,86,56,44,30.10,29.92,9,-181,14,0.00
2013-8-16,76,58,62,67,36,-100,96,68,57,30.17,30.08,9,-166,14,0.00
2013-8-17,76,58,63,66,36,-100,97,68,67,30.24,30.16,7,-165,9,0.00
2013-8-18,75,56,61,67,32,-100,92,65,63,30.24,30.05,10,-186,10,0.08
2013-8-19,78,56,61,70,29,-100,92,64,66,30.05,29.94,7,-220,10,0.08
2013-8-20,80,58,68,71,30,-100,93,61,64,30.06,29.95,6,-220,10,0.00
2013-8-21,81,60,67,73,37,-100,96,69,65,30.11,30.02,8,-188,11,0.00
2013-8-22,76,59,70,72,38,-100,97,76,87,30.03,29.82,8,-189,13,0.01
2013-8-23,74,49,69,71,13,-100,97,53,68,30.04,29.78,20,-306,21,0.00
2013-8-24,70,53,58,63,21,-100,84,51,53,30.29,30.05,18,-212,20,0.00
2013-8-25,77,58,56,66,34,-100,92,62,48,30.32,30.19,9,-167,11,0.00
2013-8-26,74,55,66,68,30,-100,94,69,80,30.19,29.88,9,-216,19,0.00
2013-8-27,72,30,68,70,-28,-100,98,41,94,29.88,29.79,10,-572,13,0.15
2013-8-28,73,46,67,70,11,-100,99,63,88,29.90,29.81,9,-334,9,0.00
2013-8-29,69,67,64,68,65,60,98,93,87,29.98,29.88,20,12,25,0.00
2013-8-30,72,67,64,68,62,-100,98,88,81,29.96,29.84,18,-5,26,0.00
2013-8-31,75,68,68,72,62,-100,98,91,88,29.85,29.81,16,-38,21,0.00
2013-9-1,76,66,70,73,57,-100,98,88,91,29.87,29.81,23,-75,27,0.00
2013-9-2,78,59,70,75,38,-100,99,76,88,29.85,29.70,9,-195,17,0.00
2013-9-3,76,54,67,73,28,-100,99,72,90,29.78,29.67,8,-248,14,0.08
2013-9-4,76,53,62,67,22,-100,98,61,67,29.91,29.76,9,-248,14,0.08
2013-9-5,74,55,64,70,32,-100,96,68,73,30.07,29.85,17,-184,21,0.01
2013-9-6,68,49,54,57,18,-100,87,53,48,30.18,30.07,11,-215,14,0.01
2013-9-7,71,54,53,61,27,-100,88,58,59,30.08,29.85,10,-175,17,0.00
2013-9-8,77,57,62,67,30,-100,93,58,54,30.03,29.71,26,-180,27,0.00
2013-9-9,66,51,60,56,23,-100,80,53,51,30.20,30.03,18,-165,19,0.00
2013-9-10,73,48,62,68,16,-100,92,60,78,30.16,30.03,14,-295,20,0.00
2013-9-11,76,57,69,72,34,-100,98,72,86,30.07,29.98,11,-207,18,0.00
2013-9-12,76,60,69,72,40,-100,98,76,86,29.99,29.69,13,-175,22,0.00
2013-9-13,76,53,67,71,24,-100,98,67,79,29.68,29.54,14,-258,18,0.02
2013-9-14,70,52,60,63,27,-100,89,64,69,30.01,29.69,12,-197,16,0.00
2013-9-15,68,52,56,57,29,-100,91,63,62,30.12,30.01,10,-166,13,0.00
2013-9-16,66,50,57,62,26,-100,92,65,69,30.13,29.98,20,-187,26,0.02
2013-9-17,59,45,53,52,18,-100,80,57,61,30.33,30.14,26,-178,30,0.00
2013-9-18,68,50,50,54,24,-100,91,58,47,30.28,30.12,8,-164,12,0.00
2013-9-19,72,53,56,63,31,-100,95,68,63,30.12,30.02,11,-168,15,0.00
2013-9-20,73,54,58,66,33,-100,97,71,65,30.05,29.99,5,-176,11,0.01
2013-9-21,72,56,60,67,36,-100,98,75,82,30.02,29.75,12,-173,15,0.00
2013-9-22,71,46,59,67,11,-100,97,58,71,29.76,29.63,12,-299,17,0.00
2013-9-23,63,47,54,53,20,-100,80,57,58,29.95,29.76,18,-182,22,0.00
2013-9-24,63,47,50,52,22,-100,81,58,59,29.95,29.78,13,-172,17,0.00
2013-9-25,62,49,52,53,25,-100,85,61,68,29.92,29.84,13,-166,14,0.00
2013-9-26,60,46,57,54,15,-100,81,57,68,30.05,29.92,16,-227,19,0.00
2013-9-27,62,46,59,57,18,-100,86,62,77,30.20,30.05,19,-231,21,0.00
2013-9-28,66,45,57,60,12,-100,88,58,68,30.26,30.19,10,-277,12,0.00
2013-9-29,63,49,57,59,27,-100,93,70,77,30.20,30.04,13,-181,14,0.00
2013-9-30,64,46,54,60,19,-100,95,66,80,30.03,29.91,14,-241,16,0.00
2013-10-1,72,52,54,61,28,-100,96,66,55,29.91,29.82,13,-180,16,0.00
2013-10-2,77,56,60,65,31,-100,96,64,61,29.92,29.80,18,-189,18,0.00
2013-10-3,72,53,60,60,28,-100,94,63,58,30.04,29.92,8,-187,12,0.00
2013-10-4,73,52,59,65,29,-100,95,69,66,30.03,29.98,10,-195,12,0.00
2013-10-5,65,48,61,61,20,-100,91,66,82,30.07,30.00,8,-247,9,0.00
2013-10-6,64,37,59,60,-7,-100,94,50,78,30.15,30.07,15,-406,18,0.00
2013-10-7,72,47,66,70,15,-100,97,64,89,30.07,29.83,12,-311,20,0.08
2013-10-8,66,49,59,65,22,-100,97,58,61,30.29,29.86,16,-192,20,0.18
2013-10-9,60,47,58,52,18,-100,82,57,67,30.37,30.28,22,-191,25,0.00
2013-10-10,62,48,57,60,24,-100,94,71,82,30.27,30.07,16,-203,20,0.00
2013-10-11,65,40,60,62,3,-100,94,57,75,30.07,30.02,16,-346,20,0.00
2013-10-12,63,39,57,59,2,-100,90,57,77,30.30,30.06,25,-337,29,0.00
2013-10-13,58,39,54,51,2,-100,81,52,71,30.37,30.27,19,-305,24,0.00
2013-10-14,58,46,48,51,24,-100,94,68,74,30.36,30.23,9,-166,10,0.00
2013-10-15,61,46,51,58,23,-100,97,67,68,30.23,30.11,12,-193,14,0.00
2013-10-16,61,29,58,59,-23,-100,97,46,86,30.11,29.86,14,-505,14,0.00
2013-10-17,66,42,61,62,6,-100,96,61,87,29.87,29.72,8,-342,13,0.00
2013-10-18,68,43,54,63,5,-100,96,53,59,29.88,29.62,16,-320,20,0.00
2013-10-19,62,48,52,57,23,-100,93,60,55,29.96,29.73,11,-178,15,0.01
2013-10-20,61,43,49,58,9,-100,94,48,46,29.98,29.67,14,-247,20,0.01
2013-10-21,64,48,48,50,21,-100,80,55,47,30.09,29.99,11,-177,13,0.00
2013-10-22,66,49,55,58,24,-100,93,66,69,29.98,29.68,8,-196,14,0.00
2013-10-23,56,33,46,48,-10,-100,91,46,60,29.75,29.53,16,-368,22,0.21
2013-10-24,53,32,44,40,-15,-100,82,36,45,29.87,29.59,12,-351,22,0.21
2013-10-25,52,38,41,39,10,-100,81,51,50,30.14,29.87,12,-177,20,0.00
2013-10-26,58,44,38,47,17,-100,77,54,55,30.14,29.85,13,-163,24,0.00
2013-10-27,56,41,46,47,7,-100,77,46,52,30.03,29.78,13,-230,23,0.00
2013-10-28,58,43,45,44,15,-100,72,51,53,30.27,30.04,17,-173,22,0.00
2013-10-29,52,37,45,43,6,-100,83,54,49,30.36,30.28,14,-235,17,0.00
2013-10-30,58,41,43,51,14,-100,90,61,63,30.33,30.16,9,-220,12,0.00
2013-10-31,64,47,48,61,23,-100,95,70,82,30.20,29.86,10,-212,19,0.00
2013-11-1,68,38,61,65,-3,-100,94,55,90,29.84,29.53,19,-396,31,0.02
2013-11-2,59,32,55,56,-13,-100,96,51,84,29.67,29.56,5,-436,7,0.00
2013-11-3,58,15,45,53,-55,-100,91,26,75,30.30,29.66,25,-684,26,0.00
2013-11-4,43,30,41,34,-4,-100,72,49,62,30.64,30.30,22,-264,24,0.00
2013-11-5,48,34,40,40,5,-100,88,58,66,30.66,30.49,9,-230,12,0.00
2013-11-6,58,43,43,55,19,-100,95,69,75,30.49,30.07,9,-208,14,0.00
2013-11-7,63,26,57,62,-31,-100,98,41,91,30.06,29.65,11,-568,20,1.04
2013-11-8,50,32,39,38,-6,-100,70,42,48,30.07,29.77,24,-274,37,0.00
2013-11-9,50,34,38,41,3,-100,75,49,48,30.17,30.04,15,-205,20,0.00
2013-11-10,58,36,45,49,-1,-100,90,50,61,30.02,29.69,13,-302,29,0.04
2013-11-11,55,39,43,47,10,-100,76,51,49,30.06,29.85,17,-197,28,0.04
2013-11-12,56,9,31,48,-72,-100,95,17,68,30.13,29.85,20,-795,28,0.00
2013-11-13,37,24,31,23,-15,-100,72,42,49,30.23,30.12,16,-290,27,0.00
2013-11-14,50,37,31,40,7,-100,79,50,49,30.18,30.04,14,-194,22,0.00
2013-11-15,59,44,50,51,17,-100,89,60,48,30.20,30.12,10,-196,16,0.00
2013-11-16,59,38,43,49,8,-100,97,59,47,30.29,30.18,10,-252,11,0.00
2013-11-17,58,39,44,58,9,-100,98,66,76,30.29,29.86,14,-277,18,0.02
2013-11-18,60,36,50,59,-4,-100,98,54,63,29.84,29.57,10,-366,18,0.02
2013-11-19,53,35,37,41,2,-100,68,44,47,30.22,29.63,21,-191,30,0.00
2013-11-20,42,31,34,31,0,-100,69,48,49,30.55,30.23,17,-194,21,0.00
2013-11-21,47,33,36,39,6,-100,85,58,63,30.58,30.37,9,-211,15,0.00
2013-11-22,54,12,42,53,-65,-100,96,22,84,30.36,29.80,4,-759,10,0.06
2013-11-23,48,31,35,36,-11,-100,70,38,40,29.84,29.75,18,-279,30,0.00
2013-11-24,35,21,25,20,-18,-100,57,34,30,30.14,29.75,35,-227,47,0.00
2013-11-25,43,24,22,34,-12,-100,75,40,30,30.35,30.15,20,-217,30,0.00
2013-11-26,48,21,43,41,-36,-100,87,33,66,30.30,29.99,8,-536,20,0.00
2013-11-27,60,4,58,60,-90,-100,99,6,98,29.97,29.10,13,-935,23,0.06
2013-11-28,37,22,28,26,-20,-100,71,38,47,30.40,29.46,20,-318,27,0.00
2013-11-29,36,24,28,22,-12,-100,62,42,50,30.67,30.40,19,-255,19,0.00
2013-11-30,40,27,29,32,-3,-100,80,53,54,30.71,30.43,14,-219,18,0.00
2013-12-1,50,36,40,49,12,-100,98,69,72,30.42,29.93,17,-215,20,0.06
2013-12-2,45,12,41,45,-59,-100,98,28,95,29.94,29.84,8,-707,10,0.06
2013-12-3,44,25,38,41,-16,-100,94,54,86,29.89,29.77,15,-390,19,0.00
2013-12-4,47,31,34,38,5,-100,95,63,62,30.16,29.89,11,-217,14,0.00
2013-12-5,52,16,36,50,-50,-100,97,32,89,30.17,29.93,14,-654,18,0.00
2013-12-6,57,4,56,57,-90,-100,100,6,97,30.06,29.87,5,-925,11,0.00
2013-12-7,41,23,35,35,-21,-100,90,45,62,30.40,29.98,16,-391,18,0.00
2013-12-8,35,24,31,28,-11,-100,76,50,60,30.54,30.40,15,-287,17,0.00
2013-12-9,47,7,44,46,-77,-100,98,15,96,30.41,29.82,6,-841,7,0.06
2013-12-10,-200,0,200,-100,-100,-100,0,0,100,29.99,29.75,0,-999,0,0.00
2013-12-11,34,22,26,28,-12,-100,85,53,63,30.22,29.99,10,-300,21,0.00
2013-12-12,32,18,19,21,-19,-100,69,42,43,30.22,30.06,15,-267,24,0.00
2013-12-13,33,21,-90,22,-13,-100,91,45,51,30.30,29.99,15,-249,24,0.00
2013-12-14,29,9,22,24,-56,-100,88,28,68,30.52,30.05,18,-620,19,0.00
2013-12-15,44,8,31,43,-68,-100,98,23,97,30.02,29.29,12,-764,18,0.00
2013-12-16,31,18,25,18,-26,-100,62,35,44,30.18,29.74,16,-344,24,0.00
2013-12-17,43,21,24,42,-18,-100,98,54,59,30.22,29.81,20,-338,28,0.04
2013-12-18,36,22,28,27,-18,-100,92,47,60,30.08,29.72,16,-342,26,0.04
2013-12-19,49,32,32,40,0,-100,78,54,68,30.10,29.95,15,-255,19,0.00
2013-12-20,54,36,38,49,9,-100,96,66,76,30.10,29.95,9,-248,14,0.00
2013-12-21,55,38,49,53,10,-100,98,69,90,30.00,29.90,14,-267,19,0.00
2013-12-22,57,12,53,57,-68,-100,100,20,97,29.97,29.85,9,-779,23,0.00
2013-12-23,44,5,43,44,-85,-100,99,11,98,30.02,29.89,4,-892,6,0.08
2013-12-24,36,17,31,30,-38,-100,82,35,55,30.15,29.96,19,-505,21,0.00
2013-12-25,31,18,20,24,-12,-100,81,54,61,30.52,30.15,18,-224,22,0.00
2013-12-26,42,20,24,39,-27,-100,97,49,82,30.46,30.01,14,-454,18,0.18
2013-12-27,37,23,31,28,-14,-100,80,49,63,30.25,30.17,11,-314,17,0.00
2013-12-28,50,34,30,41,6,-100,94,61,68,30.22,29.99,10,-229,23,0.00
2013-12-29,52,10,40,49,-68,-100,94,20,90,30.03,29.27,7,-778,9,0.01
2013-12-30,46,25,29,41,-15,-100,95,46,49,30.09,29.42,18,-328,26,0.00
2013-12-31,29,17,23,22,-28,-100,81,42,54,30.14,30.00,10,-382,19,0.00
2014-1-1,31,22,26,19,-11,-100,68,43,47,30.35,30.15,12,-218,19,0.00
2014-1-2,34,4,30,33,-86,-100,100,9,59,30.29,29.58,23,-882,28,0.00